Time;durP1;ratioP1;P1;durP2;ratioP2;P2;SDS_P1;SDS_P2;PMS_P1;PMS_P2;Temp;Humidity;BMP_temperature;BMP_pressure;BME280_temperature;BME280_humidity;BME280_pressure;Samples;Min_cycle;Max_cycle;Signal;HPM_P1;HPM_P2
2022/09/27 00:01:43;;;;;;;;;;;;;;;17.08;63.18;98691.16;4268372;33;20028;-84
2022/09/27 00:04:10;;;;;;;;;;;;;;;17.01;63.14;98679.19;4276218;33;19985;-84
2022/09/27 00:06:38;;;;;;;;;;;;;;;16.98;63.35;98684.50;4271802;33;20327;-84
2022/09/27 00:09:06;;;;;;;;;;;;;;;16.93;63.51;98682.00;4270340;33;19999;-84
2022/09/27 00:11:35;;;;;;;;;;;;;;;16.94;63.91;98677.63;4274436;33;20040;-84
2022/09/27 00:14:02;;;;;;;;;;;;;;;17.07;63.37;98676.38;4278836;33;20826;-84
2022/09/27 00:16:30;;;;;;;;;;;;;;;17.18;62.88;98670.84;4269132;33;20326;-84
2022/09/27 00:18:59;;;;;;;;;;;;;;;16.90;63.79;98665.53;4287221;33;20039;-84
2022/09/27 00:21:25;;;;;;;;;;;;;;;16.81;63.90;98676.25;4278872;33;19991;-84
2022/09/27 00:23:52;;;;;;;;;;;;;;;16.92;63.17;98668.97;4279648;33;20320;-84
2022/09/27 00:26:19;;;;;;;;;;;;;;;16.83;63.29;98664.00;4273573;33;19977;-85
2022/09/27 00:28:46;;;;;;;;;;;;;;;16.48;64.24;98657.97;4271457;33;19997;-84
2022/09/27 00:31:16;;;;;;;;;;;;;;;16.80;63.06;98656.25;4267583;33;19981;-84
2022/09/27 00:33:43;;;;;;;;;;;;;;;16.79;62.50;98662.38;4268442;33;20585;-85
2022/09/27 00:36:10;;;;;;;;;;;;;;;16.88;62.00;98656.88;4274741;33;20043;-84
2022/09/27 00:38:38;;;;;;;;;;;;;;;16.64;62.99;98664.47;4248970;33;19994;-84
2022/09/27 00:41:06;;;;;;;;;;;;;;;16.60;63.06;98655.03;4240521;33;20045;-85
2022/09/27 00:43:49;;;;;;;;;;;;;;;16.70;62.80;98653.00;4240453;33;19982;-84
2022/09/27 00:46:22;;;;;;;;;;;;;;;16.71;62.49;98646.88;4239030;33;20009;-85
2022/09/27 00:48:50;;;;;;;;;;;;;;;16.66;62.30;98641.78;4242355;33;20030;-85
2022/09/27 00:51:17;;;;;;;;;;;;;;;16.34;63.44;98640.06;4283702;33;19976;-85
2022/09/27 00:53:47;;;;;;;;;;;;;;;16.49;62.94;98644.00;4272460;33;19991;-85
2022/09/27 00:56:18;;;;;;;;;;;;;;;16.52;62.93;98643.91;4279243;33;20023;-84
2022/09/27 00:58:46;;;;;;;;;;;;;;;16.62;62.94;98640.12;4269829;33;20024;-85
2022/09/27 01:01:13;;;;;;;;;;;;;;;16.83;61.93;98637.88;4275152;33;20015;-85
2022/09/27 01:03:49;;;;;;;;;;;;;;;16.89;61.95;98640.31;4280581;33;19981;-84
2022/09/27 01:06:17;;;;;;;;;;;;;;;16.56;63.18;98637.72;4277064;33;20362;-85
2022/09/27 01:08:44;;;;;;;;;;;;;;;16.43;63.96;98638.94;4293507;33;20033;-85
2022/09/27 01:11:13;;;;;;;;;;;;;;;16.44;63.76;98640.66;4288250;33;19978;-84
2022/09/27 01:14:03;;;;;;;;;;;;;;;16.40;64.27;98631.19;4274842;33;19989;-85
2022/09/27 01:16:34;;;;;;;;;;;;;;;16.54;63.89;98631.69;4288866;33;20005;-84
2022/09/27 01:19:04;;;;;;;;;;;;;;;16.40;64.22;98628.56;4293211;33;20044;-85
2022/09/27 01:21:42;;;;;;;;;;;;;;;16.77;62.93;98627.59;4280547;33;19980;-85
2022/09/27 01:24:13;;;;;;;;;;;;;;;16.52;63.90;98638.69;4288798;33;20676;-84
2022/09/27 01:26:47;;;;;;;;;;;;;;;16.42;64.47;98618.94;4273085;33;20008;-84
2022/09/27 01:29:18;;;;;;;;;;;;;;;16.40;64.27;98618.12;4268559;33;19985;-84
2022/09/27 01:32:11;;;;;;;;;;;;;;;16.54;63.79;98610.78;4286876;33;19981;-85
2022/09/27 01:34:51;;;;;;;;;;;;;;;16.34;64.73;98613.09;4267887;33;20001;-85
2022/09/27 01:37:36;;;;;;;;;;;;;;;16.51;64.11;98601.25;4268961;33;19982;-85
2022/09/27 01:40:17;;;;;;;;;;;;;;;16.38;64.45;98596.44;4275596;33;20012;-84
2022/09/27 01:42:48;;;;;;;;;;;;;;;16.56;63.77;98593.31;4280538;33;20513;-84
2022/09/27 01:45:24;;;;;;;;;;;;;;;16.32;64.62;98599.19;4274863;33;20344;-84
2022/09/27 01:47:56;;;;;;;;;;;;;;;16.32;64.22;98588.75;4279066;33;19992;-84
2022/09/27 01:50:30;;;;;;;;;;;;;;;16.12;64.66;98587.53;4280439;33;19999;-85
2022/09/27 01:53:16;;;;;;;;;;;;;;;16.38;63.38;98581.59;4285083;33;20064;-85
2022/09/27 01:55:44;;;;;;;;;;;;;;;16.45;62.85;98574.47;4271075;33;19989;-87
2022/09/27 01:58:23;;;;;;;;;;;;;;;16.09;63.21;98566.75;4286183;33;19984;-85
2022/09/27 02:00:51;;;;;;;;;;;;;;;16.08;63.28;98570.25;4278608;33;19985;-85
2022/09/27 02:03:19;;;;;;;;;;;;;;;16.03;63.01;98572.12;3983392;33;5001667;-85
2022/09/27 02:05:48;;;;;;;;;;;;;;;15.90;63.21;98561.16;4279279;33;20446;-85
2022/09/27 02:08:30;;;;;;;;;;;;;;;16.01;62.68;98572.16;4273212;33;19985;-85
2022/09/27 02:10:58;;;;;;;;;;;;;;;16.04;62.19;98558.16;4279411;33;19989;-85
2022/09/27 02:13:30;;;;;;;;;;;;;;;15.99;62.28;98567.87;4286402;33;20701;-84
2022/09/27 02:16:16;;;;;;;;;;;;;;;16.23;61.28;98569.81;4292862;33;19984;-85
2022/09/27 02:18:50;;;;;;;;;;;;;;;16.04;61.49;98568.59;4282321;33;19972;-85
2022/09/27 02:21:17;;;;;;;;;;;;;;;15.86;62.00;98569.06;4288370;33;20049;-84
2022/09/27 02:23:49;;;;;;;;;;;;;;;15.86;61.72;98571.69;4270401;33;20025;-85
2022/09/27 02:26:16;;;;;;;;;;;;;;;15.85;61.82;98568.22;4266662;33;20053;-84
2022/09/27 02:28:45;;;;;;;;;;;;;;;15.57;62.61;98568.03;4278588;33;20372;-85
2022/09/27 02:31:12;;;;;;;;;;;;;;;15.67;62.24;98568.72;4281928;33;20080;-85
2022/09/27 02:33:41;;;;;;;;;;;;;;;15.71;61.84;98559.91;4285709;33;19980;-85
2022/09/27 02:36:08;;;;;;;;;;;;;;;15.84;61.37;98560.44;4292681;33;19992;-84
2022/09/27 02:38:35;;;;;;;;;;;;;;;15.79;61.22;98552.72;3681750;33;10011777;-84
2022/09/27 02:41:03;;;;;;;;;;;;;;;15.58;61.98;98554.97;4256758;33;19989;-84
2022/09/27 02:43:31;;;;;;;;;;;;;;;15.25;62.58;98553.16;4283887;33;20350;-84
2022/09/27 02:46:17;;;;;;;;;;;;;;;15.70;61.12;98551.22;4289519;33;19984;-84
2022/09/27 02:48:55;;;;;;;;;;;;;;;15.72;61.11;98544.19;4272281;33;20091;-84
2022/09/27 02:51:25;;;;;;;;;;;;;;;15.66;61.07;98546.94;4277409;33;20000;-85
2022/09/27 02:53:55;;;;;;;;;;;;;;;15.69;60.84;98546.88;4276403;33;20355;-84
2022/09/27 02:56:24;;;;;;;;;;;;;;;15.62;60.93;98549.66;4272471;33;19982;-84
2022/09/27 02:58:57;;;;;;;;;;;;;;;15.51;61.02;98537.75;4278185;33;20802;-84
2022/09/27 03:01:44;;;;;;;;;;;;;;;15.28;61.40;98535.72;4284384;33;19989;-85
2022/09/27 03:04:11;;;;;;;;;;;;;;;15.38;61.51;98545.91;4278575;33;19989;-84
2022/09/27 03:06:38;;;;;;;;;;;;;;;15.37;61.21;98546.81;4271884;33;19997;-85
2022/09/27 03:09:12;;;;;;;;;;;;;;;15.30;61.38;98533.91;4270747;33;20703;-84
2022/09/27 03:11:39;;;;;;;;;;;;;;;15.12;61.52;98529.13;4276319;33;19985;-84
2022/09/27 03:14:06;;;;;;;;;;;;;;;15.33;61.06;98533.84;4278482;33;19993;-84
2022/09/27 03:16:35;;;;;;;;;;;;;;;15.18;61.70;98544.63;4272259;33;19997;-84
2022/09/27 03:19:05;;;;;;;;;;;;;;;15.21;61.37;98541.94;4279452;33;20406;-84
2022/09/27 03:21:36;;;;;;;;;;;;;;;15.22;61.25;98535.84;4281889;33;20003;-84
2022/09/27 03:24:03;;;;;;;;;;;;;;;15.23;60.98;98527.12;3678695;33;10013275;-84
2022/09/27 03:26:31;;;;;;;;;;;;;;;15.17;61.03;98531.66;4271684;33;20329;-84
2022/09/27 03:28:58;;;;;;;;;;;;;;;15.14;61.16;98532.56;4272117;33;20775;-85
2022/09/27 03:31:25;;;;;;;;;;;;;;;15.13;61.27;98541.28;4282565;33;20004;-85
2022/09/27 03:33:53;;;;;;;;;;;;;;;15.02;62.17;98527.63;4273849;33;20012;-84
2022/09/27 03:36:20;;;;;;;;;;;;;;;15.20;61.89;98527.22;4278188;33;19989;-85
2022/09/27 03:38:47;;;;;;;;;;;;;;;15.13;62.64;98519.59;4283924;33;19977;-85
2022/09/27 03:41:14;;;;;;;;;;;;;;;15.21;62.87;98525.44;4278134;33;20395;-85
2022/09/27 03:43:41;;;;;;;;;;;;;;;15.35;62.38;98524.25;4273807;33;20007;-84
2022/09/27 03:46:08;;;;;;;;;;;;;;;15.33;62.53;98528.63;4274944;33;20001;-85
2022/09/27 03:48:35;;;;;;;;;;;;;;;15.49;62.43;98523.03;4267751;33;19986;-84
2022/09/27 03:51:03;;;;;;;;;;;;;;;15.55;62.56;98515.06;4283127;33;20327;-84
2022/09/27 03:53:30;;;;;;;;;;;;;;;15.53;62.81;98515.09;4276222;33;19996;-84
2022/09/27 03:55:57;;;;;;;;;;;;;;;15.53;63.34;98515.09;4273818;33;20257;-84
2022/09/27 03:58:24;;;;;;;;;;;;;;;15.54;63.51;98522.03;4283675;33;19973;-85
2022/09/27 04:00:52;;;;;;;;;;;;;;;15.41;64.52;98522.34;4279222;33;20017;-85
2022/09/27 04:03:19;;;;;;;;;;;;;;;15.45;64.95;98526.62;4283000;33;20000;-84
2022/09/27 04:05:48;;;;;;;;;;;;;;;15.41;65.13;98519.75;4283972;33;20006;-84
2022/09/27 04:08:15;;;;;;;;;;;;;;;15.67;64.09;98522.63;4280284;33;20028;-84
2022/09/27 04:10:42;;;;;;;;;;;;;;;15.58;64.49;98522.81;4277349;33;19981;-84
2022/09/27 04:13:09;;;;;;;;;;;;;;;15.70;64.18;98522.53;4269293;33;19977;-84
2022/09/27 04:15:38;;;;;;;;;;;;;;;15.84;63.94;98513.47;4268697;33;20000;-84
2022/09/27 04:18:09;;;;;;;;;;;;;;;15.78;64.01;98517.09;4269279;33;19978;-84
2022/09/27 04:20:37;;;;;;;;;;;;;;;15.86;64.07;98511.66;4271664;33;20285;-84
2022/09/27 04:23:05;;;;;;;;;;;;;;;15.61;65.33;98514.06;4268759;33;19981;-91
2022/09/27 04:25:33;;;;;;;;;;;;;;;15.71;65.03;98513.81;4269896;33;20007;-88
2022/09/27 04:28:05;;;;;;;;;;;;;;;15.76;65.17;98506.72;4274852;33;20303;-86
2022/09/27 04:30:32;;;;;;;;;;;;;;;15.79;65.12;98496.22;4283525;33;19981;-86
2022/09/27 04:33:00;;;;;;;;;;;;;;;15.88;64.86;98491.63;4294282;33;20331;-86
2022/09/27 04:38:14;;;;;;;;;;;;;;;15.78;65.69;98493.63;4283360;33;20315;-87
2022/09/27 04:40:41;;;;;;;;;;;;;;;15.94;65.23;98483.63;4283266;33;19985;-87
2022/09/27 04:43:08;;;;;;;;;;;;;;;15.89;65.63;98495.94;4263231;33;20004;-87
2022/09/27 04:45:36;;;;;;;;;;;;;;;15.75;66.03;98494.56;4250447;33;20352;-86
2022/09/27 04:48:03;;;;;;;;;;;;;;;15.96;65.58;98487.06;4262264;33;20008;-91
2022/09/27 04:50:30;;;;;;;;;;;;;;;16.04;65.38;98487.69;4267627;33;20466;-88
2022/09/27 04:53:02;;;;;;;;;;;;;;;16.07;65.42;98486.75;4266797;33;20035;-89
2022/09/27 04:55:29;;;;;;;;;;;;;;;16.02;65.96;98489.50;4262571;33;19989;-89
2022/09/27 04:57:56;;;;;;;;;;;;;;;16.18;65.37;98488.16;4240341;33;20345;-89
2022/09/27 05:00:24;;;;;;;;;;;;;;;16.14;65.41;98483.06;4246638;33;20733;-89
2022/09/27 05:02:52;;;;;;;;;;;;;;;16.18;65.49;98472.50;4241919;33;20053;-88
2022/09/27 05:05:21;;;;;;;;;;;;;;;16.17;65.75;98476.00;4263706;33;19993;-87
2022/09/27 05:07:49;;;;;;;;;;;;;;;16.27;65.60;98484.41;4245825;33;19982;-88
2022/09/27 05:10:22;;;;;;;;;;;;;;;16.01;66.91;98485.16;4244574;33;19986;-88
2022/09/27 05:12:49;;;;;;;;;;;;;;;16.27;65.81;98477.47;4247582;33;20025;-90
2022/09/27 05:15:15;;;;;;;;;;;;;;;16.32;66.00;98471.25;4288353;33;19988;-89
2022/09/27 05:17:44;;;;;;;;;;;;;;;16.34;66.27;98462.47;4278942;33;20048;-90
2022/09/27 05:20:19;;;;;;;;;;;;;;;16.39;66.14;98464.94;4268423;33;20345;-89
2022/09/27 05:22:47;;;;;;;;;;;;;;;16.45;66.06;98472.59;4273608;33;20395;-88
2022/09/27 05:25:15;;;;;;;;;;;;;;;16.56;65.79;98473.12;4263110;33;20047;-90
2022/09/27 05:27:42;;;;;;;;;;;;;;;16.60;65.91;98464.31;4260081;33;20017;-89
2022/09/27 05:30:09;;;;;;;;;;;;;;;16.54;66.28;98446.19;4267956;33;20062;-88
2022/09/27 05:32:42;;;;;;;;;;;;;;;16.51;66.53;98449.75;4268704;33;20008;-88
2022/09/27 05:35:12;;;;;;;;;;;;;;;16.53;66.59;98447.13;4266912;33;20000;-91
2022/09/27 05:37:39;;;;;;;;;;;;;;;16.53;66.55;98452.34;4266257;33;19992;-88
2022/09/27 05:40:07;;;;;;;;;;;;;;;16.69;65.95;98450.09;4264829;33;20553;-91
2022/09/27 05:42:54;;;;;;;;;;;;;;;16.66;66.11;98440.59;4265483;33;19997;-89
2022/09/27 05:45:22;;;;;;;;;;;;;;;16.69;66.30;98437.91;4264310;33;20056;-90
2022/09/27 05:47:52;;;;;;;;;;;;;;;16.59;66.69;98441.69;4265739;33;19985;-89
2022/09/27 05:50:20;;;;;;;;;;;;;;;16.72;66.35;98437.81;4264084;33;19997;-89
2022/09/27 05:52:47;;;;;;;;;;;;;;;16.82;65.95;98443.63;4261088;33;19977;-91
2022/09/27 05:55:15;;;;;;;;;;;;;;;16.88;65.95;98448.66;4278293;33;19999;-90
2022/09/27 05:57:52;;;;;;;;;;;;;;;16.88;66.25;98447.78;4278312;33;19988;-90
2022/09/27 06:00:24;;;;;;;;;;;;;;;16.85;66.32;98443.53;4268468;33;19981;-87
2022/09/27 06:02:55;;;;;;;;;;;;;;;16.97;66.29;98442.25;4273855;33;20020;-87
2022/09/27 06:05:33;;;;;;;;;;;;;;;16.97;66.51;98442.25;4258344;33;19989;-89
2022/09/27 06:08:06;;;;;;;;;;;;;;;16.87;67.14;98443.47;4264178;33;19981;-87
2022/09/27 06:10:33;;;;;;;;;;;;;;;17.15;66.06;98439.06;4267604;33;19989;-87
2022/09/27 06:13:03;;;;;;;;;;;;;;;17.19;65.98;98432.81;4276205;33;20002;-88
2022/09/27 06:15:36;;;;;;;;;;;;;;;17.19;66.09;98438.03;4291674;33;19989;-86
2022/09/27 06:18:10;;;;;;;;;;;;;;;17.13;66.57;98448.72;4274006;33;20328;-86
2022/09/27 06:20:38;;;;;;;;;;;;;;;17.05;67.11;98442.88;4268050;33;20042;-87
2022/09/27 06:23:06;;;;;;;;;;;;;;;17.22;66.51;98439.69;4280167;33;20010;-88
2022/09/27 06:25:34;;;;;;;;;;;;;;;17.14;67.04;98453.03;4253182;33;20011;-85
2022/09/27 06:28:01;;;;;;;;;;;;;;;17.25;66.61;98449.19;4290378;33;20931;-87
2022/09/27 06:30:29;;;;;;;;;;;;;;;17.28;66.81;98451.72;4289244;33;20004;-86
2022/09/27 06:32:57;;;;;;;;;;;;;;;17.40;66.20;98451.31;4282028;33;19976;-88
2022/09/27 06:35:25;;;;;;;;;;;;;;;17.54;66.03;98443.84;4277085;33;19981;-87
2022/09/27 06:37:52;;;;;;;;;;;;;;;17.58;65.97;98444.56;4281830;33;19981;-87
2022/09/27 06:40:19;;;;;;;;;;;;;;;17.62;65.68;98447.06;4281312;33;20007;-87
2022/09/27 06:42:49;;;;;;;;;;;;;;;17.59;66.01;98431.47;4275678;33;20048;-87
2022/09/27 06:45:16;;;;;;;;;;;;;;;17.79;65.08;98422.06;4266255;33;28994;-87
2022/09/27 06:47:46;;;;;;;;;;;;;;;17.79;65.15;98422.06;4283877;33;19989;-87
2022/09/27 06:50:14;;;;;;;;;;;;;;;17.74;65.52;98418.72;4279980;33;22130;-87
2022/09/27 06:52:46;;;;;;;;;;;;;;;17.77;65.57;98423.87;4275605;33;19995;-87
2022/09/27 06:55:13;;;;;;;;;;;;;;;17.39;66.82;98436.53;4273662;33;20080;-86
2022/09/27 07:00:25;;;;;;;;;;;;;;;17.72;65.43;98457.19;4277602;33;20041;-86
2022/09/27 07:02:59;;;;;;;;;;;;;;;17.81;65.19;98452.53;4283143;33;20024;-85
2022/09/27 07:05:30;;;;;;;;;;;;;;;17.79;65.10;98450.88;4273800;33;19987;-85
2022/09/27 07:07:57;;;;;;;;;;;;;;;17.79;65.22;98449.09;4264986;33;19985;-87
2022/09/27 07:10:25;;;;;;;;;;;;;;;17.70;65.85;98448.53;4277477;33;20032;-86
2022/09/27 07:12:52;;;;;;;;;;;;;;;17.65;66.59;98451.31;4267480;33;20046;-88
2022/09/27 07:15:22;;;;;;;;;;;;;;;17.54;67.01;98451.69;4267575;33;20750;-85
2022/09/27 07:17:56;;;;;;;;;;;;;;;17.59;66.69;98447.16;4273870;33;20006;-86
2022/09/27 07:20:24;;;;;;;;;;;;;;;17.64;66.20;98452.22;4266964;33;19996;-89
2022/09/27 07:22:52;;;;;;;;;;;;;;;17.75;65.65;98444.84;4278806;33;20438;-88
2022/09/27 07:25:18;;;;;;;;;;;;;;;17.70;66.04;98453.78;4268381;33;20005;-87
2022/09/27 07:27:45;;;;;;;;;;;;;;;18.01;64.79;98449.19;4275324;33;19995;-88
2022/09/27 07:30:13;;;;;;;;;;;;;;;17.93;64.67;98440.75;4267738;33;20000;-87
2022/09/27 07:32:39;;;;;;;;;;;;;;;18.04;63.87;98438.59;4279230;33;20014;-88
2022/09/27 07:35:07;;;;;;;;;;;;;;;17.79;65.12;98448.25;4268634;33;19989;-88
2022/09/27 07:37:35;;;;;;;;;;;;;;;17.69;65.74;98447.69;4278126;33;19999;-87
2022/09/27 07:40:02;;;;;;;;;;;;;;;17.98;64.59;98449.28;4277114;33;20051;-88
2022/09/27 07:42:29;;;;;;;;;;;;;;;18.18;63.75;98434.59;4272763;33;19993;-88
2022/09/27 07:44:56;;;;;;;;;;;;;;;18.27;63.80;98431.66;4272007;33;20425;-88
2022/09/27 07:47:24;;;;;;;;;;;;;;;18.04;64.59;98425.50;4244803;33;795824;-88
2022/09/27 07:49:52;;;;;;;;;;;;;;;18.12;64.58;98426.09;4269450;33;20038;-88
2022/09/27 07:52:19;;;;;;;;;;;;;;;18.12;64.72;98436.56;4276558;33;19976;-88
2022/09/27 07:54:46;;;;;;;;;;;;;;;18.10;64.89;98443.63;4279838;33;19985;-88
2022/09/27 07:57:13;;;;;;;;;;;;;;;18.21;64.72;98444.97;4279437;33;20057;-88
2022/09/27 07:59:42;;;;;;;;;;;;;;;18.32;64.08;98442.81;4268636;33;20001;-88
2022/09/27 08:02:13;;;;;;;;;;;;;;;18.37;63.88;98436.47;4276888;33;19985;-88
2022/09/27 08:04:47;;;;;;;;;;;;;;;18.39;63.15;98431.19;4278901;33;19994;-88
2022/09/27 08:07:14;;;;;;;;;;;;;;;18.22;64.07;98425.72;4278943;33;19978;-88
2022/09/27 08:09:42;;;;;;;;;;;;;;;18.28;64.26;98425.50;4281288;33;20296;-88
2022/09/27 08:12:09;;;;;;;;;;;;;;;18.38;63.92;98426.88;4274649;33;19990;-89
2022/09/27 08:14:36;;;;;;;;;;;;;;;18.02;65.35;98440.41;4272725;33;19985;-88
2022/09/27 08:17:11;;;;;;;;;;;;;;;18.18;64.83;98445.09;4279467;33;19985;-88
2022/09/27 08:19:39;;;;;;;;;;;;;;;18.12;64.64;98441.81;4281995;33;19997;-88
2022/09/27 08:22:07;;;;;;;;;;;;;;;18.05;65.19;98450.78;4280488;33;20467;-88
2022/09/27 08:24:35;;;;;;;;;;;;;;;18.29;64.21;98450.78;4265158;33;19988;-87
2022/09/27 08:27:01;;;;;;;;;;;;;;;18.49;63.25;98445.63;4280873;33;20060;-87
2022/09/27 08:29:31;;;;;;;;;;;;;;;18.31;63.93;98441.09;4280019;33;20323;-88
2022/09/27 08:31:58;;;;;;;;;;;;;;;18.35;64.20;98437.47;4279427;33;20011;-88
2022/09/27 08:34:27;;;;;;;;;;;;;;;18.23;64.38;98432.69;4280361;33;19992;-88
2022/09/27 08:36:54;;;;;;;;;;;;;;;18.20;65.03;98435.41;4279353;33;20028;-88
2022/09/27 08:39:23;;;;;;;;;;;;;;;18.19;65.00;98431.06;4279261;33;19981;-87
2022/09/27 08:41:52;;;;;;;;;;;;;;;18.15;64.73;98440.81;4281418;33;20335;-88
2022/09/27 08:44:37;;;;;;;;;;;;;;;18.19;65.04;98438.94;4281845;33;19992;-89
2022/09/27 08:47:05;;;;;;;;;;;;;;;18.20;64.95;98443.28;4280462;33;19995;-89
2022/09/27 08:49:35;;;;;;;;;;;;;;;17.97;65.07;98439.75;4279570;33;19988;-87
2022/09/27 08:52:03;;;;;;;;;;;;;;;18.07;64.80;98438.47;4277675;33;20321;-87
2022/09/27 08:54:30;;;;;;;;;;;;;;;18.04;65.21;98428.12;4279416;33;20032;-88
2022/09/27 08:57:02;;;;;;;;;;;;;;;18.24;64.62;98429.16;4285378;33;20411;-89
2022/09/27 08:59:56;;;;;;;;;;;;;;;18.25;64.44;98420.38;4279372;33;19982;-89
2022/09/27 09:02:24;;;;;;;;;;;;;;;18.56;63.22;98428.75;4269122;33;19986;-90
2022/09/27 09:04:53;;;;;;;;;;;;;;;18.31;63.95;98428.00;4273640;33;19999;-89
2022/09/27 09:07:27;;;;;;;;;;;;;;;18.42;63.60;98428.44;3688891;33;10011937;-89
2022/09/27 09:10:13;;;;;;;;;;;;;;;18.38;63.33;98421.63;4273307;33;20037;-89
2022/09/27 09:12:45;;;;;;;;;;;;;;;17.77;66.07;98418.66;4270109;33;20021;-87
2022/09/27 09:15:15;;;;;;;;;;;;;;;18.03;65.01;98415.94;4286705;33;20094;-89
2022/09/27 09:17:51;;;;;;;;;;;;;;;18.29;63.97;98401.03;4283954;33;20854;-89
2022/09/27 09:20:28;;;;;;;;;;;;;;;18.38;64.00;98395.44;4277728;33;20082;-89
2022/09/27 09:22:55;;;;;;;;;;;;;;;18.47;64.12;98395.03;4277279;33;19988;-86
2022/09/27 09:25:27;;;;;;;;;;;;;;;18.50;64.24;98394.91;4269107;33;20044;-90
2022/09/27 09:28:12;;;;;;;;;;;;;;;18.33;65.15;98382.50;4265770;33;19993;-86
2022/09/27 09:30:51;;;;;;;;;;;;;;;18.53;64.78;98399.19;4277687;33;20042;-88
2022/09/27 09:33:29;;;;;;;;;;;;;;;18.54;64.74;98395.69;4273206;33;19990;-88
2022/09/27 09:36:12;;;;;;;;;;;;;;;18.38;64.52;98395.44;4277113;33;20312;-88
2022/09/27 09:38:41;;;;;;;;;;;;;;;18.15;65.88;98392.81;4276986;33;19997;-90
2022/09/27 09:41:21;;;;;;;;;;;;;;;18.41;65.06;98383.94;4280136;33;20316;-87
2022/09/27 09:43:54;;;;;;;;;;;;;;;18.50;64.99;98388.84;4269696;33;20323;-90
2022/09/27 09:46:23;;;;;;;;;;;;;;;18.21;66.79;98382.09;4269016;33;20021;-86
2022/09/27 09:48:53;;;;;;;;;;;;;;;18.18;67.12;98382.22;4275567;33;20003;-87
2022/09/27 09:51:21;;;;;;;;;;;;;;;18.13;66.99;98379.78;4270756;33;19985;-89
2022/09/27 09:53:49;;;;;;;;;;;;;;;18.48;65.89;98378.44;4273971;33;20092;-86
2022/09/27 09:56:28;;;;;;;;;;;;;;;18.73;64.77;98374.84;4274905;33;19985;-86
2022/09/27 09:58:57;;;;;;;;;;;;;;;18.42;66.60;98376.03;3675481;33;10008915;-85
2022/09/27 10:01:25;;;;;;;;;;;;;;;18.49;65.71;98377.50;4257122;33;20003;-88
2022/09/27 10:03:53;;;;;;;;;;;;;;;18.80;64.71;98377.16;4278702;33;20303;-89
2022/09/27 10:06:20;;;;;;;;;;;;;;;18.34;66.36;98378.94;4278734;33;19982;-85
2022/09/27 10:08:52;;;;;;;;;;;;;;;18.70;65.27;98374.97;4269911;33;20041;-81
2022/09/27 10:11:32;;;;;;;;;;;;;;;18.71;65.06;98369.63;4270212;33;19988;-83
2022/09/27 10:13:59;;;;;;;;;;;;;;;17.89;67.89;98363.22;4286675;33;20652;-85
2022/09/27 10:16:28;;;;;;;;;;;;;;;18.29;67.04;98364.34;4292695;33;19992;-85
2022/09/27 10:18:56;;;;;;;;;;;;;;;18.09;67.75;98360.72;4279856;33;20016;-86
2022/09/27 10:21:24;;;;;;;;;;;;;;;18.17;67.69;98354.34;4284974;33;20015;-84
2022/09/27 10:24:06;;;;;;;;;;;;;;;18.28;67.50;98352.13;4278518;33;20044;-85
2022/09/27 10:26:33;;;;;;;;;;;;;;;18.36;67.67;98350.09;4269161;33;20032;-85
2022/09/27 10:29:33;;;;;;;;;;;;;;;18.25;67.62;98352.25;4284580;33;20013;-85
2022/09/27 10:32:04;;;;;;;;;;;;;;;18.33;67.30;98344.97;4263188;33;20361;-86
2022/09/27 10:34:35;;;;;;;;;;;;;;;18.24;67.72;98347.94;4291370;33;19995;-86
2022/09/27 10:37:02;;;;;;;;;;;;;;;18.44;67.77;98342.78;4291718;33;19980;-86
2022/09/27 10:39:29;;;;;;;;;;;;;;;18.46;67.61;98340.94;4277616;33;20044;-85
2022/09/27 10:41:57;;;;;;;;;;;;;;;18.77;66.21;98335.34;4279417;33;20064;-86
2022/09/27 10:44:25;;;;;;;;;;;;;;;18.63;67.26;98339.41;4280826;33;20495;-86
2022/09/27 10:46:56;;;;;;;;;;;;;;;18.80;66.13;98344.84;4279869;33;20385;-86
2022/09/27 10:49:33;;;;;;;;;;;;;;;18.48;67.27;98339.13;4279006;33;20049;-86
2022/09/27 10:52:04;;;;;;;;;;;;;;;18.48;67.34;98339.13;4289525;33;20001;-86
2022/09/27 10:54:32;;;;;;;;;;;;;;;18.77;66.88;98334.50;4290079;33;19980;-85
2022/09/27 10:56:59;;;;;;;;;;;;;;;18.74;67.35;98334.63;4281164;33;19997;-85
2022/09/27 10:59:26;;;;;;;;;;;;;;;18.89;66.49;98328.75;4290565;33;19988;-85
2022/09/27 11:01:54;;;;;;;;;;;;;;;18.82;66.37;98322.03;4291063;33;20397;-87
2022/09/27 11:04:25;;;;;;;;;;;;;;;18.90;67.18;98313.88;4282979;33;19977;-85
2022/09/27 11:06:51;;;;;;;;;;;;;;;19.05;66.87;98314.06;4280737;33;20044;-85
2022/09/27 11:09:25;;;;;;;;;;;;;;;19.17;66.07;98303.94;4282945;33;19997;-88
2022/09/27 11:12:05;;;;;;;;;;;;;;;19.11;66.43;98304.22;4274811;33;20531;-86
2022/09/27 11:14:32;;;;;;;;;;;;;;;19.50;65.37;98305.09;4269375;33;19981;-87
2022/09/27 11:17:13;;;;;;;;;;;;;;;19.68;63.96;98298.16;4278787;33;19989;-87
2022/09/27 11:19:47;;;;;;;;;;;;;;;19.99;63.56;98307.28;4283383;33;19993;-88
2022/09/27 11:22:22;;;;;;;;;;;;;;;19.55;64.18;98290.91;4287585;33;20003;-89
2022/09/27 11:24:53;;;;;;;;;;;;;;;19.27;65.26;98292.13;4294206;33;20810;-88
2022/09/27 11:27:33;;;;;;;;;;;;;;;19.66;64.43;98288.69;4293013;33;19997;-87
2022/09/27 11:30:16;;;;;;;;;;;;;;;19.99;63.74;98281.00;4283412;33;20055;-89
2022/09/27 11:32:45;;;;;;;;;;;;;;;19.85;63.68;98284.28;4294051;33;19981;-88
2022/09/27 11:35:20;;;;;;;;;;;;;;;19.54;64.29;98273.47;4289002;33;19981;-89
2022/09/27 11:37:53;;;;;;;;;;;;;;;19.88;63.62;98284.16;4276041;33;20001;-87
2022/09/27 11:40:20;;;;;;;;;;;;;;;19.82;63.54;98284.44;4281519;33;20371;-87
2022/09/27 11:43:07;;;;;;;;;;;;;;;19.80;63.70;98275.75;4283616;33;20052;-87
2022/09/27 11:46:05;;;;;;;;;;;;;;;19.96;63.16;98274.12;4293978;33;20029;-85
2022/09/27 11:48:54;;;;;;;;;;;;;;;19.92;62.81;98269.94;4283350;33;19981;-88
2022/09/27 11:51:35;;;;;;;;;;;;;;;19.78;64.11;98256.59;4285009;33;20047;-86
2022/09/27 11:54:06;;;;;;;;;;;;;;;19.57;64.06;98253.16;4304041;33;20417;-86
2022/09/27 11:56:37;;;;;;;;;;;;;;;19.77;63.28;98249.66;4290475;33;19980;-86
2022/09/27 11:59:22;;;;;;;;;;;;;;;19.55;64.11;98248.91;4294893;33;20048;-85
2022/09/27 12:02:11;;;;;;;;;;;;;;;19.81;63.49;98245.94;4300861;33;19988;-86
2022/09/27 12:05:00;;;;;;;;;;;;;;;20.09;63.12;98242.00;4288789;33;20068;-86
2022/09/27 12:07:47;;;;;;;;;;;;;;;19.90;64.20;98240.25;4300282;33;19992;-85
2022/09/27 12:10:17;;;;;;;;;;;;;;;19.96;63.58;98229.47;4292855;33;19988;-86
2022/09/27 12:12:45;;;;;;;;;;;;;;;20.14;63.12;98234.78;4303783;33;20048;-84
2022/09/27 12:15:19;;;;;;;;;;;;;;;20.18;62.01;98228.44;3698815;33;10011512;-86
2022/09/27 12:17:51;;;;;;;;;;;;;;;20.13;62.63;98230.44;4288488;33;20811;-86
2022/09/27 12:20:23;;;;;;;;;;;;;;;19.96;63.33;98229.47;4299560;33;19976;-86
2022/09/27 12:22:54;;;;;;;;;;;;;;;19.79;64.22;98232.06;4285755;33;20011;-87
2022/09/27 12:25:28;;;;;;;;;;;;;;;19.89;63.40;98230.69;4289048;33;20000;-85
2022/09/27 12:28:00;;;;;;;;;;;;;;;19.91;63.32;98234.09;4298065;33;20416;-84
2022/09/27 12:30:30;;;;;;;;;;;;;;;19.86;63.62;98233.47;4293819;33;20354;-85
2022/09/27 12:33:03;;;;;;;;;;;;;;;19.78;64.33;98230.34;4298854;33;19989;-85
2022/09/27 12:35:31;;;;;;;;;;;;;;;19.74;64.50;98223.53;4298708;33;20007;-85
2022/09/27 12:38:00;;;;;;;;;;;;;;;19.46;65.34;98216.94;4288038;33;20001;-84
2022/09/27 12:40:37;;;;;;;;;;;;;;;19.93;65.16;98200.72;4283289;33;20053;-85
2022/09/27 12:43:07;;;;;;;;;;;;;;;20.41;63.42;98199.22;4299672;33;20008;-86
2022/09/27 12:45:46;;;;;;;;;;;;;;;20.38;62.96;98199.38;4299964;33;20048;-85
2022/09/27 12:48:20;;;;;;;;;;;;;;;20.24;62.42;98193.13;4298338;33;19996;-86
2022/09/27 12:50:52;;;;;;;;;;;;;;;20.52;61.38;98187.37;4282231;33;20004;-86
2022/09/27 12:53:22;;;;;;;;;;;;;;;20.65;61.12;98185.81;4288398;33;19996;-85
2022/09/27 12:55:58;;;;;;;;;;;;;;;20.62;58.93;98185.97;4259710;33;5090678;-88
2022/09/27 12:58:34;;;;;;;;;;;;;;;20.04;60.73;98187.09;4284608;33;19992;-87
2022/09/27 13:01:16;;;;;;;;;;;;;;;20.27;61.42;98191.19;4289184;33;20735;-85
2022/09/27 13:04:22;;;;;;;;;;;;;;;20.55;60.94;98184.56;4287095;33;20005;-87
2022/09/27 13:07:04;;;;;;;;;;;;;;;20.59;61.21;98186.97;4281967;33;19992;-89
2022/09/27 13:09:38;;;;;;;;;;;;;;;20.27;62.60;98183.31;4276829;33;20024;-88
2022/09/27 13:12:08;;;;;;;;;;;;;;;20.43;62.29;98171.09;4234690;33;20029;-88